sensor_id;sensor_type;location;lat;lon;timestamp;temperature;humidity
13245;DHT22;6689;53.400;12.486;2022-07-29T00:00:12;16.40;1.00
13245;DHT22;6689;53.400;12.486;2022-07-29T00:02:39;16.30;1.00
13245;DHT22;6689;53.400;12.486;2022-07-29T00:05:09;16.30;1.00
13245;DHT22;6689;53.400;12.486;2022-07-29T00:07:39;16.30;1.00
13245;DHT22;6689;53.400;12.486;2022-07-29T00:10:09;16.40;1.00
13245;DHT22;6689;53.400;12.486;2022-07-29T00:12:37;16.30;1.00
13245;DHT22;6689;53.400;12.486;2022-07-29T00:15:07;16.40;1.00
13245;DHT22;6689;53.400;12.486;2022-07-29T00:17:34;16.30;1.00
13245;DHT22;6689;53.400;12.486;2022-07-29T00:20:03;16.30;1.00
13245;DHT22;6689;53.400;12.486;2022-07-29T00:22:32;16.30;1.00
13245;DHT22;6689;53.400;12.486;2022-07-29T00:24:59;16.40;1.00
13245;DHT22;6689;53.400;12.486;2022-07-29T00:27:29;16.40;1.00
13245;DHT22;6689;53.400;12.486;2022-07-29T00:29:59;16.30;1.00
13245;DHT22;6689;53.400;12.486;2022-07-29T00:32:34;16.30;1.00
13245;DHT22;6689;53.400;12.486;2022-07-29T00:35:07;16.30;1.00
13245;DHT22;6689;53.400;12.486;2022-07-29T00:37:55;16.30;1.00
13245;DHT22;6689;53.400;12.486;2022-07-29T00:40:26;16.30;1.00
13245;DHT22;6689;53.400;12.486;2022-07-29T00:42:53;16.30;1.00
13245;DHT22;6689;53.400;12.486;2022-07-29T00:45:23;16.20;1.00
13245;DHT22;6689;53.400;12.486;2022-07-29T00:47:52;16.20;1.00
13245;DHT22;6689;53.400;12.486;2022-07-29T00:50:19;16.20;1.00
13245;DHT22;6689;53.400;12.486;2022-07-29T00:52:49;16.20;1.00
13245;DHT22;6689;53.400;12.486;2022-07-29T00:55:20;16.20;1.00
13245;DHT22;6689;53.400;12.486;2022-07-29T00:57:52;16.10;1.00
13245;DHT22;6689;53.400;12.486;2022-07-29T01:00:24;16.10;1.00
13245;DHT22;6689;53.400;12.486;2022-07-29T01:02:59;16.10;1.00
13245;DHT22;6689;53.400;12.486;2022-07-29T01:05:28;16.10;1.00
13245;DHT22;6689;53.400;12.486;2022-07-29T01:07:57;15.90;1.00
13245;DHT22;6689;53.400;12.486;2022-07-29T01:10:25;15.80;1.00
13245;DHT22;6689;53.400;12.486;2022-07-29T01:12:59;15.80;1.00
13245;DHT22;6689;53.400;12.486;2022-07-29T01:15:37;15.70;1.00
13245;DHT22;6689;53.400;12.486;2022-07-29T01:18:12;15.60;1.00
13245;DHT22;6689;53.400;12.486;2022-07-29T01:20:58;15.60;1.00
13245;DHT22;6689;53.400;12.486;2022-07-29T01:23:59;15.40;1.00
13245;DHT22;6689;53.400;12.486;2022-07-29T01:26:45;15.40;1.00
13245;DHT22;6689;53.400;12.486;2022-07-29T01:29:30;15.40;1.00
13245;DHT22;6689;53.400;12.486;2022-07-29T01:32:03;15.30;1.00
13245;DHT22;6689;53.400;12.486;2022-07-29T01:34:37;15.40;1.00
13245;DHT22;6689;53.400;12.486;2022-07-29T01:37:18;15.40;1.00
13245;DHT22;6689;53.400;12.486;2022-07-29T01:39:48;15.40;1.20
13245;DHT22;6689;53.400;12.486;2022-07-29T01:42:22;15.40;3.80
13245;DHT22;6689;53.400;12.486;2022-07-29T01:44:55;15.40;5.30
13245;DHT22;6689;53.400;12.486;2022-07-29T01:47:33;15.40;14.00
13245;DHT22;6689;53.400;12.486;2022-07-29T01:50:04;15.40;25.50
13245;DHT22;6689;53.400;12.486;2022-07-29T01:52:44;15.40;17.20
13245;DHT22;6689;53.400;12.486;2022-07-29T01:55:17;15.40;25.70
13245;DHT22;6689;53.400;12.486;2022-07-29T01:57:49;15.40;40.80
13245;DHT22;6689;53.400;12.486;2022-07-29T02:00:20;15.40;13.40
13245;DHT22;6689;53.400;12.486;2022-07-29T02:02:54;15.50;12.80
13245;DHT22;6689;53.400;12.486;2022-07-29T02:05:29;15.50;14.40
13245;DHT22;6689;53.400;12.486;2022-07-29T02:08:04;15.50;25.50
13245;DHT22;6689;53.400;12.486;2022-07-29T02:10:35;15.50;30.30
13245;DHT22;6689;53.400;12.486;2022-07-29T02:13:04;15.50;22.90
13245;DHT22;6689;53.400;12.486;2022-07-29T02:15:35;15.50;34.90
13245;DHT22;6689;53.400;12.486;2022-07-29T02:18:08;15.40;31.70
13245;DHT22;6689;53.400;12.486;2022-07-29T02:20:39;15.40;33.80
13245;DHT22;6689;53.400;12.486;2022-07-29T02:23:15;15.50;69.80
13245;DHT22;6689;53.400;12.486;2022-07-29T02:25:45;15.50;27.10
13245;DHT22;6689;53.400;12.486;2022-07-29T02:28:19;15.50;33.10
13245;DHT22;6689;53.400;12.486;2022-07-29T02:30:51;15.40;49.60
13245;DHT22;6689;53.400;12.486;2022-07-29T02:33:23;15.40;41.40
13245;DHT22;6689;53.400;12.486;2022-07-29T02:35:51;15.40;55.60
13245;DHT22;6689;53.400;12.486;2022-07-29T02:38:25;15.30;70.10
13245;DHT22;6689;53.400;12.486;2022-07-29T02:41:15;15.30;71.70
13245;DHT22;6689;53.400;12.486;2022-07-29T02:43:52;15.30;73.60
13245;DHT22;6689;53.400;12.486;2022-07-29T02:46:27;15.30;61.70
13245;DHT22;6689;53.400;12.486;2022-07-29T02:49:02;15.30;76.90
13245;DHT22;6689;53.400;12.486;2022-07-29T02:51:40;15.20;49.50
13245;DHT22;6689;53.400;12.486;2022-07-29T02:54:18;15.10;38.30
13245;DHT22;6689;53.400;12.486;2022-07-29T02:56:46;15.10;52.80
13245;DHT22;6689;53.400;12.486;2022-07-29T02:59:25;15.00;32.70
13245;DHT22;6689;53.400;12.486;2022-07-29T03:01:58;14.90;55.60
13245;DHT22;6689;53.400;12.486;2022-07-29T03:04:30;14.90;23.70
13245;DHT22;6689;53.400;12.486;2022-07-29T03:07:00;14.80;16.10
13245;DHT22;6689;53.400;12.486;2022-07-29T03:09:29;14.80;50.00
13245;DHT22;6689;53.400;12.486;2022-07-29T03:12:00;14.70;28.10
13245;DHT22;6689;53.400;12.486;2022-07-29T03:14:29;14.70;25.80
13245;DHT22;6689;53.400;12.486;2022-07-29T03:17:01;14.60;37.60
13245;DHT22;6689;53.400;12.486;2022-07-29T03:19:31;14.60;36.80
13245;DHT22;6689;53.400;12.486;2022-07-29T03:21:59;14.60;36.50
13245;DHT22;6689;53.400;12.486;2022-07-29T03:24:32;14.60;31.50
13245;DHT22;6689;53.400;12.486;2022-07-29T03:27:00;14.60;58.40
13245;DHT22;6689;53.400;12.486;2022-07-29T03:29:29;14.60;36.90
13245;DHT22;6689;53.400;12.486;2022-07-29T03:31:59;14.50;21.60
13245;DHT22;6689;53.400;12.486;2022-07-29T03:34:26;14.50;20.20
13245;DHT22;6689;53.400;12.486;2022-07-29T03:36:55;14.50;23.40
13245;DHT22;6689;53.400;12.486;2022-07-29T03:39:29;14.50;41.70
13245;DHT22;6689;53.400;12.486;2022-07-29T03:42:04;14.50;26.10
13245;DHT22;6689;53.400;12.486;2022-07-29T03:44:36;14.50;65.00
13245;DHT22;6689;53.400;12.486;2022-07-29T03:47:11;14.50;78.30
13245;DHT22;6689;53.400;12.486;2022-07-29T03:49:44;14.50;76.10
13245;DHT22;6689;53.400;12.486;2022-07-29T03:52:15;14.50;93.10
13245;DHT22;6689;53.400;12.486;2022-07-29T03:54:42;14.50;99.90
13245;DHT22;6689;53.400;12.486;2022-07-29T03:57:12;14.60;99.90
13245;DHT22;6689;53.400;12.486;2022-07-29T03:59:44;14.60;99.90
13245;DHT22;6689;53.400;12.486;2022-07-29T04:02:15;14.60;99.90
13245;DHT22;6689;53.400;12.486;2022-07-29T04:04:42;14.60;99.90
13245;DHT22;6689;53.400;12.486;2022-07-29T04:07:15;14.70;99.90
13245;DHT22;6689;53.400;12.486;2022-07-29T04:09:45;14.70;99.90
13245;DHT22;6689;53.400;12.486;2022-07-29T04:12:12;14.80;99.90
13245;DHT22;6689;53.400;12.486;2022-07-29T04:14:41;14.80;99.90
13245;DHT22;6689;53.400;12.486;2022-07-29T04:17:10;14.90;99.90
13245;DHT22;6689;53.400;12.486;2022-07-29T04:19:39;14.90;99.90
13245;DHT22;6689;53.400;12.486;2022-07-29T04:22:06;15.00;99.90
13245;DHT22;6689;53.400;12.486;2022-07-29T04:24:36;15.00;99.90
13245;DHT22;6689;53.400;12.486;2022-07-29T04:27:04;15.10;99.90
13245;DHT22;6689;53.400;12.486;2022-07-29T04:29:31;15.20;99.90
13245;DHT22;6689;53.400;12.486;2022-07-29T04:32:01;15.20;99.90
13245;DHT22;6689;53.400;12.486;2022-07-29T04:34:29;15.30;99.90
13245;DHT22;6689;53.400;12.486;2022-07-29T04:37:00;15.30;99.90
13245;DHT22;6689;53.400;12.486;2022-07-29T04:39:26;15.40;99.90
13245;DHT22;6689;53.400;12.486;2022-07-29T04:41:55;15.50;99.90
13245;DHT22;6689;53.400;12.486;2022-07-29T04:44:22;15.50;99.90
13245;DHT22;6689;53.400;12.486;2022-07-29T04:46:52;15.50;99.90
13245;DHT22;6689;53.400;12.486;2022-07-29T04:49:22;15.60;99.90
13245;DHT22;6689;53.400;12.486;2022-07-29T04:51:51;15.60;99.90
13245;DHT22;6689;53.400;12.486;2022-07-29T04:54:22;15.70;99.90
13245;DHT22;6689;53.400;12.486;2022-07-29T04:56:50;15.80;99.90
13245;DHT22;6689;53.400;12.486;2022-07-29T04:59:17;15.80;99.90
13245;DHT22;6689;53.400;12.486;2022-07-29T05:01:47;15.80;99.90
13245;DHT22;6689;53.400;12.486;2022-07-29T05:04:16;15.90;99.90
13245;DHT22;6689;53.400;12.486;2022-07-29T05:06:45;16.00;99.90
13245;DHT22;6689;53.400;12.486;2022-07-29T05:09:18;16.00;99.90
13245;DHT22;6689;53.400;12.486;2022-07-29T05:11:48;16.10;99.90
13245;DHT22;6689;53.400;12.486;2022-07-29T05:14:16;16.10;99.90
13245;DHT22;6689;53.400;12.486;2022-07-29T05:16:46;16.10;99.90
13245;DHT22;6689;53.400;12.486;2022-07-29T05:19:16;16.20;99.90
13245;DHT22;6689;53.400;12.486;2022-07-29T05:21:47;16.30;99.90
13245;DHT22;6689;53.400;12.486;2022-07-29T05:24:16;16.30;99.90
13245;DHT22;6689;53.400;12.486;2022-07-29T05:26:45;16.40;99.90
13245;DHT22;6689;53.400;12.486;2022-07-29T05:29:15;16.50;99.90
13245;DHT22;6689;53.400;12.486;2022-07-29T05:31:42;16.70;99.90
13245;DHT22;6689;53.400;12.486;2022-07-29T05:34:11;16.80;99.90
13245;DHT22;6689;53.400;12.486;2022-07-29T05:36:40;17.00;99.90
13245;DHT22;6689;53.400;12.486;2022-07-29T05:39:11;17.10;99.90
13245;DHT22;6689;53.400;12.486;2022-07-29T05:41:40;17.20;99.90
13245;DHT22;6689;53.400;12.486;2022-07-29T05:44:07;17.30;99.90
13245;DHT22;6689;53.400;12.486;2022-07-29T05:46:38;17.40;99.90
13245;DHT22;6689;53.400;12.486;2022-07-29T05:49:08;17.40;99.90
13245;DHT22;6689;53.400;12.486;2022-07-29T05:51:40;17.50;99.90
13245;DHT22;6689;53.400;12.486;2022-07-29T05:54:07;17.50;99.90
13245;DHT22;6689;53.400;12.486;2022-07-29T05:56:37;17.50;99.90
13245;DHT22;6689;53.400;12.486;2022-07-29T05:59:07;17.60;99.90
13245;DHT22;6689;53.400;12.486;2022-07-29T06:01:39;17.60;99.90
13245;DHT22;6689;53.400;12.486;2022-07-29T06:04:07;17.60;99.90
13245;DHT22;6689;53.400;12.486;2022-07-29T06:06:37;17.60;99.90
13245;DHT22;6689;53.400;12.486;2022-07-29T06:09:06;17.60;99.90
13245;DHT22;6689;53.400;12.486;2022-07-29T06:11:33;17.60;99.90
13245;DHT22;6689;53.400;12.486;2022-07-29T06:14:03;17.70;99.90
13245;DHT22;6689;53.400;12.486;2022-07-29T06:16:33;17.70;98.70
13245;DHT22;6689;53.400;12.486;2022-07-29T06:19:06;17.80;99.90
13245;DHT22;6689;53.400;12.486;2022-07-29T06:21:33;17.80;99.90
13245;DHT22;6689;53.400;12.486;2022-07-29T06:24:07;17.70;99.90
13245;DHT22;6689;53.400;12.486;2022-07-29T06:26:37;17.90;68.60
13245;DHT22;6689;53.400;12.486;2022-07-29T06:29:07;18.00;69.20
13245;DHT22;6689;53.400;12.486;2022-07-29T06:31:36;17.90;64.50
13245;DHT22;6689;53.400;12.486;2022-07-29T06:34:08;17.90;70.50
13245;DHT22;6689;53.400;12.486;2022-07-29T06:36:38;18.10;89.10
13245;DHT22;6689;53.400;12.486;2022-07-29T06:39:09;18.40;81.60
13245;DHT22;6689;53.400;12.486;2022-07-29T06:41:37;18.70;61.60
13245;DHT22;6689;53.400;12.486;2022-07-29T06:44:08;18.90;32.80
13245;DHT22;6689;53.400;12.486;2022-07-29T06:46:37;19.20;28.60
13245;DHT22;6689;53.400;12.486;2022-07-29T06:49:12;19.40;8.60
13245;DHT22;6689;53.400;12.486;2022-07-29T06:51:42;19.50;1.00
13245;DHT22;6689;53.400;12.486;2022-07-29T06:54:11;19.60;1.00
13245;DHT22;6689;53.400;12.486;2022-07-29T06:56:38;19.60;1.00
13245;DHT22;6689;53.400;12.486;2022-07-29T06:59:10;19.60;1.00
13245;DHT22;6689;53.400;12.486;2022-07-29T07:01:39;19.50;1.00
13245;DHT22;6689;53.400;12.486;2022-07-29T07:04:06;19.60;1.00
13245;DHT22;6689;53.400;12.486;2022-07-29T07:06:37;19.50;1.00
13245;DHT22;6689;53.400;12.486;2022-07-29T07:09:06;19.50;1.00
13245;DHT22;6689;53.400;12.486;2022-07-29T07:11:33;19.40;1.00
13245;DHT22;6689;53.400;12.486;2022-07-29T07:14:03;19.20;1.00
13245;DHT22;6689;53.400;12.486;2022-07-29T07:16:33;19.30;1.00
13245;DHT22;6689;53.400;12.486;2022-07-29T07:19:02;19.40;7.70
13245;DHT22;6689;53.400;12.486;2022-07-29T07:21:32;19.40;1.00
13245;DHT22;6689;53.400;12.486;2022-07-29T07:24:01;19.40;1.00
13245;DHT22;6689;53.400;12.486;2022-07-29T07:26:28;19.50;1.00
13245;DHT22;6689;53.400;12.486;2022-07-29T07:28:58;19.60;1.00
13245;DHT22;6689;53.400;12.486;2022-07-29T07:31:27;19.70;1.00
13245;DHT22;6689;53.400;12.486;2022-07-29T07:33:54;19.90;1.00
13245;DHT22;6689;53.400;12.486;2022-07-29T07:36:24;20.00;1.00
13245;DHT22;6689;53.400;12.486;2022-07-29T07:38:52;20.10;1.00
13245;DHT22;6689;53.400;12.486;2022-07-29T07:41:24;20.20;1.00
13245;DHT22;6689;53.400;12.486;2022-07-29T07:43:52;20.30;1.00
13245;DHT22;6689;53.400;12.486;2022-07-29T07:46:19;20.40;1.00
13245;DHT22;6689;53.400;12.486;2022-07-29T07:48:49;20.40;1.00
13245;DHT22;6689;53.400;12.486;2022-07-29T07:51:17;20.40;1.00
13245;DHT22;6689;53.400;12.486;2022-07-29T07:53:44;20.50;1.00
13245;DHT22;6689;53.400;12.486;2022-07-29T07:56:19;20.60;1.00
13245;DHT22;6689;53.400;12.486;2022-07-29T07:58:47;20.50;1.00
13245;DHT22;6689;53.400;12.486;2022-07-29T08:01:14;20.60;1.00
13245;DHT22;6689;53.400;12.486;2022-07-29T08:03:47;20.60;1.00
13245;DHT22;6689;53.400;12.486;2022-07-29T08:06:14;20.50;1.00
13245;DHT22;6689;53.400;12.486;2022-07-29T08:08:44;20.40;1.00
13245;DHT22;6689;53.400;12.486;2022-07-29T08:11:14;20.40;1.00
13245;DHT22;6689;53.400;12.486;2022-07-29T08:13:44;20.40;1.00
13245;DHT22;6689;53.400;12.486;2022-07-29T08:16:14;20.40;1.00
13245;DHT22;6689;53.400;12.486;2022-07-29T08:18:48;20.30;1.00
13245;DHT22;6689;53.400;12.486;2022-07-29T08:21:18;20.40;1.00
13245;DHT22;6689;53.400;12.486;2022-07-29T08:23:47;20.50;1.00
13245;DHT22;6689;53.400;12.486;2022-07-29T08:26:19;20.60;1.00
13245;DHT22;6689;53.400;12.486;2022-07-29T08:28:49;20.60;1.00
13245;DHT22;6689;53.400;12.486;2022-07-29T08:31:19;20.60;1.00
13245;DHT22;6689;53.400;12.486;2022-07-29T08:33:54;20.70;1.00
13245;DHT22;6689;53.400;12.486;2022-07-29T08:36:26;20.80;1.00
13245;DHT22;6689;53.400;12.486;2022-07-29T08:38:57;20.80;1.00
13245;DHT22;6689;53.400;12.486;2022-07-29T08:41:30;20.70;1.00
13245;DHT22;6689;53.400;12.486;2022-07-29T08:44:03;20.80;1.00
13245;DHT22;6689;53.400;12.486;2022-07-29T08:46:32;20.70;1.00
13245;DHT22;6689;53.400;12.486;2022-07-29T08:49:00;20.80;1.00
13245;DHT22;6689;53.400;12.486;2022-07-29T08:51:39;20.80;1.00
13245;DHT22;6689;53.400;12.486;2022-07-29T08:54:08;20.80;1.00
13245;DHT22;6689;53.400;12.486;2022-07-29T08:56:39;21.00;1.00
13245;DHT22;6689;53.400;12.486;2022-07-29T08:59:14;21.10;1.00
13245;DHT22;6689;53.400;12.486;2022-07-29T09:01:43;21.20;1.00
13245;DHT22;6689;53.400;12.486;2022-07-29T09:04:14;21.30;1.00
13245;DHT22;6689;53.400;12.486;2022-07-29T09:06:51;21.30;1.00
13245;DHT22;6689;53.400;12.486;2022-07-29T09:09:20;21.60;1.00
13245;DHT22;6689;53.400;12.486;2022-07-29T09:11:49;21.70;1.00
13245;DHT22;6689;53.400;12.486;2022-07-29T09:14:20;21.90;1.00
13245;DHT22;6689;53.400;12.486;2022-07-29T09:16:53;22.00;1.00
13245;DHT22;6689;53.400;12.486;2022-07-29T09:19:29;22.10;1.00
13245;DHT22;6689;53.400;12.486;2022-07-29T09:22:01;21.90;1.00
13245;DHT22;6689;53.400;12.486;2022-07-29T09:24:40;22.30;1.00
13245;DHT22;6689;53.400;12.486;2022-07-29T09:27:11;22.40;1.00
13245;DHT22;6689;53.400;12.486;2022-07-29T09:29:45;22.50;1.00
13245;DHT22;6689;53.400;12.486;2022-07-29T09:32:15;22.50;1.00
13245;DHT22;6689;53.400;12.486;2022-07-29T09:34:45;22.70;1.00
13245;DHT22;6689;53.400;12.486;2022-07-29T09:37:26;22.90;1.00
13245;DHT22;6689;53.400;12.486;2022-07-29T09:39:54;23.00;1.00
13245;DHT22;6689;53.400;12.486;2022-07-29T09:42:29;23.10;1.00
13245;DHT22;6689;53.400;12.486;2022-07-29T09:45:05;23.20;1.00
13245;DHT22;6689;53.400;12.486;2022-07-29T09:47:46;23.30;1.00
13245;DHT22;6689;53.400;12.486;2022-07-29T09:50:14;23.30;1.00
13245;DHT22;6689;53.400;12.486;2022-07-29T09:52:47;23.60;1.00
13245;DHT22;6689;53.400;12.486;2022-07-29T09:55:19;23.80;1.00
13245;DHT22;6689;53.400;12.486;2022-07-29T09:57:49;24.00;1.00
13245;DHT22;6689;53.400;12.486;2022-07-29T10:00:20;24.30;1.00
13245;DHT22;6689;53.400;12.486;2022-07-29T10:02:51;24.40;1.00
13245;DHT22;6689;53.400;12.486;2022-07-29T10:05:29;24.70;1.00
13245;DHT22;6689;53.400;12.486;2022-07-29T10:08:00;24.80;1.00
13245;DHT22;6689;53.400;12.486;2022-07-29T10:10:32;24.90;1.00
13245;DHT22;6689;53.400;12.486;2022-07-29T10:13:01;24.90;1.00
13245;DHT22;6689;53.400;12.486;2022-07-29T10:15:33;25.20;1.00
13245;DHT22;6689;53.400;12.486;2022-07-29T10:18:06;25.40;1.00
13245;DHT22;6689;53.400;12.486;2022-07-29T10:20:45;25.50;1.00
13245;DHT22;6689;53.400;12.486;2022-07-29T10:23:20;25.60;1.00
13245;DHT22;6689;53.400;12.486;2022-07-29T10:25:50;25.80;1.00
13245;DHT22;6689;53.400;12.486;2022-07-29T10:28:19;25.60;1.00
13245;DHT22;6689;53.400;12.486;2022-07-29T10:30:51;25.50;1.00
13245;DHT22;6689;53.400;12.486;2022-07-29T10:33:41;25.90;1.00
13245;DHT22;6689;53.400;12.486;2022-07-29T10:36:30;25.90;1.00
13245;DHT22;6689;53.400;12.486;2022-07-29T10:39:05;26.00;1.00
13245;DHT22;6689;53.400;12.486;2022-07-29T10:41:54;25.90;99.90
13245;DHT22;6689;53.400;12.486;2022-07-29T10:44:25;25.90;1.00
13245;DHT22;6689;53.400;12.486;2022-07-29T10:46:56;25.80;1.00
13245;DHT22;6689;53.400;12.486;2022-07-29T10:49:30;26.10;1.00
13245;DHT22;6689;53.400;12.486;2022-07-29T10:52:00;26.20;1.00
13245;DHT22;6689;53.400;12.486;2022-07-29T10:54:44;26.30;1.00
13245;DHT22;6689;53.400;12.486;2022-07-29T10:57:26;26.30;1.00
13245;DHT22;6689;53.400;12.486;2022-07-29T11:00:30;26.40;1.00
13245;DHT22;6689;53.400;12.486;2022-07-29T11:05:59;26.60;1.00
13245;DHT22;6689;53.400;12.486;2022-07-29T11:08:28;26.80;1.00
13245;DHT22;6689;53.400;12.486;2022-07-29T11:14:06;26.70;99.90
13245;DHT22;6689;53.400;12.486;2022-07-29T11:17:03;26.70;1.00
13245;DHT22;6689;53.400;12.486;2022-07-29T11:19:40;26.60;1.00
13245;DHT22;6689;53.400;12.486;2022-07-29T11:22:12;26.60;99.90
13245;DHT22;6689;53.400;12.486;2022-07-29T11:25:14;26.70;1.40
13245;DHT22;6689;53.400;12.486;2022-07-29T11:27:54;26.60;99.90
13245;DHT22;6689;53.400;12.486;2022-07-29T11:30:51;26.50;1.00
13245;DHT22;6689;53.400;12.486;2022-07-29T11:33:35;26.60;99.90
13245;DHT22;6689;53.400;12.486;2022-07-29T11:36:14;26.60;99.90
13245;DHT22;6689;53.400;12.486;2022-07-29T11:38:47;26.70;99.90
13245;DHT22;6689;53.400;12.486;2022-07-29T11:41:21;26.50;1.00
13245;DHT22;6689;53.400;12.486;2022-07-29T11:43:54;26.70;1.00
13245;DHT22;6689;53.400;12.486;2022-07-29T11:46:47;26.60;99.90
13245;DHT22;6689;53.400;12.486;2022-07-29T11:49:22;26.40;99.90
13245;DHT22;6689;53.400;12.486;2022-07-29T11:51:55;26.20;99.90
13245;DHT22;6689;53.400;12.486;2022-07-29T11:54:31;26.30;99.90
13245;DHT22;6689;53.400;12.486;2022-07-29T11:57:02;26.50;99.90
13245;DHT22;6689;53.400;12.486;2022-07-29T11:59:43;26.60;99.90
13245;DHT22;6689;53.400;12.486;2022-07-29T12:02:16;26.70;99.90
13245;DHT22;6689;53.400;12.486;2022-07-29T12:04:55;26.60;99.90
13245;DHT22;6689;53.400;12.486;2022-07-29T12:07:29;26.40;1.00
13245;DHT22;6689;53.400;12.486;2022-07-29T12:09:57;26.40;1.00
13245;DHT22;6689;53.400;12.486;2022-07-29T12:12:27;26.50;99.90
13245;DHT22;6689;53.400;12.486;2022-07-29T12:14:56;26.80;99.90
13245;DHT22;6689;53.400;12.486;2022-07-29T12:17:28;26.80;1.00
13245;DHT22;6689;53.400;12.486;2022-07-29T12:20:03;27.00;99.90
13245;DHT22;6689;53.400;12.486;2022-07-29T12:22:38;27.20;99.90
13245;DHT22;6689;53.400;12.486;2022-07-29T12:25:14;27.60;99.90
13245;DHT22;6689;53.400;12.486;2022-07-29T12:27:46;27.40;99.90
13245;DHT22;6689;53.400;12.486;2022-07-29T12:30:15;27.50;99.90
13245;DHT22;6689;53.400;12.486;2022-07-29T12:32:45;27.50;99.90
13245;DHT22;6689;53.400;12.486;2022-07-29T12:35:15;27.40;99.90
13245;DHT22;6689;53.400;12.486;2022-07-29T12:37:46;27.60;99.90
13245;DHT22;6689;53.400;12.486;2022-07-29T12:40:16;27.50;99.90
13245;DHT22;6689;53.400;12.486;2022-07-29T12:43:07;27.70;99.90
13245;DHT22;6689;53.400;12.486;2022-07-29T12:45:37;27.60;99.90
13245;DHT22;6689;53.400;12.486;2022-07-29T12:48:08;27.60;99.90
13245;DHT22;6689;53.400;12.486;2022-07-29T12:50:52;27.60;99.90
13245;DHT22;6689;53.400;12.486;2022-07-29T12:53:23;27.40;99.90
13245;DHT22;6689;53.400;12.486;2022-07-29T12:55:52;27.60;99.90
13245;DHT22;6689;53.400;12.486;2022-07-29T12:58:27;27.70;99.90
13245;DHT22;6689;53.400;12.486;2022-07-29T13:01:09;27.80;99.90
13245;DHT22;6689;53.400;12.486;2022-07-29T13:03:49;27.90;99.90
13245;DHT22;6689;53.400;12.486;2022-07-29T13:06:42;27.90;99.90
13245;DHT22;6689;53.400;12.486;2022-07-29T13:09:17;28.00;99.90
13245;DHT22;6689;53.400;12.486;2022-07-29T13:11:49;27.90;99.90
13245;DHT22;6689;53.400;12.486;2022-07-29T13:14:39;27.80;99.90
13245;DHT22;6689;53.400;12.486;2022-07-29T13:17:12;27.90;99.90
13245;DHT22;6689;53.400;12.486;2022-07-29T13:19:43;28.00;99.90
13245;DHT22;6689;53.400;12.486;2022-07-29T13:22:17;27.50;99.90
13245;DHT22;6689;53.400;12.486;2022-07-29T13:24:49;27.90;99.90
13245;DHT22;6689;53.400;12.486;2022-07-29T13:27:17;27.90;99.90
13245;DHT22;6689;53.400;12.486;2022-07-29T13:29:48;28.00;99.90
13245;DHT22;6689;53.400;12.486;2022-07-29T13:32:21;28.20;99.90
13245;DHT22;6689;53.400;12.486;2022-07-29T13:34:48;28.30;99.90
13245;DHT22;6689;53.400;12.486;2022-07-29T13:37:18;28.10;99.90
13245;DHT22;6689;53.400;12.486;2022-07-29T13:39:51;28.10;99.90
13245;DHT22;6689;53.400;12.486;2022-07-29T13:42:22;28.10;99.90
13245;DHT22;6689;53.400;12.486;2022-07-29T13:45:01;28.00;99.90
13245;DHT22;6689;53.400;12.486;2022-07-29T13:47:28;28.10;99.90
13245;DHT22;6689;53.400;12.486;2022-07-29T13:50:04;28.20;99.90
13245;DHT22;6689;53.400;12.486;2022-07-29T13:52:38;28.30;99.90
13245;DHT22;6689;53.400;12.486;2022-07-29T13:55:11;28.30;99.90
13245;DHT22;6689;53.400;12.486;2022-07-29T13:57:38;28.20;99.90
13245;DHT22;6689;53.400;12.486;2022-07-29T14:00:08;28.30;99.90
13245;DHT22;6689;53.400;12.486;2022-07-29T14:02:37;28.40;99.90
13245;DHT22;6689;53.400;12.486;2022-07-29T14:05:07;28.40;99.90
13245;DHT22;6689;53.400;12.486;2022-07-29T14:07:38;28.30;99.90
13245;DHT22;6689;53.400;12.486;2022-07-29T14:10:13;28.50;99.90
13245;DHT22;6689;53.400;12.486;2022-07-29T14:12:43;28.50;99.90
13245;DHT22;6689;53.400;12.486;2022-07-29T14:15:13;28.50;99.90
13245;DHT22;6689;53.400;12.486;2022-07-29T14:17:43;28.40;99.90
13245;DHT22;6689;53.400;12.486;2022-07-29T14:20:14;28.40;99.90
13245;DHT22;6689;53.400;12.486;2022-07-29T14:22:43;28.40;99.90
13245;DHT22;6689;53.400;12.486;2022-07-29T14:25:13;28.60;99.90
13245;DHT22;6689;53.400;12.486;2022-07-29T14:27:43;28.50;99.90
13245;DHT22;6689;53.400;12.486;2022-07-29T14:30:13;28.60;99.90
13245;DHT22;6689;53.400;12.486;2022-07-29T14:32:43;28.60;99.90
13245;DHT22;6689;53.400;12.486;2022-07-29T14:35:13;28.60;99.90
13245;DHT22;6689;53.400;12.486;2022-07-29T14:37:43;28.60;99.90
13245;DHT22;6689;53.400;12.486;2022-07-29T14:40:13;28.30;99.90
13245;DHT22;6689;53.400;12.486;2022-07-29T14:42:43;28.30;99.90
13245;DHT22;6689;53.400;12.486;2022-07-29T14:45:12;28.20;99.90
13245;DHT22;6689;53.400;12.486;2022-07-29T14:47:41;28.10;99.90
13245;DHT22;6689;53.400;12.486;2022-07-29T14:50:09;27.90;99.90
13245;DHT22;6689;53.400;12.486;2022-07-29T14:52:43;27.90;99.90
13245;DHT22;6689;53.400;12.486;2022-07-29T14:55:14;27.90;99.90
13245;DHT22;6689;53.400;12.486;2022-07-29T14:57:47;27.80;99.90
13245;DHT22;6689;53.400;12.486;2022-07-29T15:00:17;27.90;99.90
13245;DHT22;6689;53.400;12.486;2022-07-29T15:02:44;27.90;99.90
13245;DHT22;6689;53.400;12.486;2022-07-29T15:05:13;27.80;99.90
13245;DHT22;6689;53.400;12.486;2022-07-29T15:07:43;28.00;99.90
13245;DHT22;6689;53.400;12.486;2022-07-29T15:10:19;28.00;99.90
13245;DHT22;6689;53.400;12.486;2022-07-29T15:12:48;28.00;99.90
13245;DHT22;6689;53.400;12.486;2022-07-29T15:15:18;27.90;99.90
13245;DHT22;6689;53.400;12.486;2022-07-29T15:17:46;28.00;99.90
13245;DHT22;6689;53.400;12.486;2022-07-29T15:20:14;27.90;99.90
13245;DHT22;6689;53.400;12.486;2022-07-29T15:22:43;28.00;99.90
13245;DHT22;6689;53.400;12.486;2022-07-29T15:25:10;27.90;99.90
13245;DHT22;6689;53.400;12.486;2022-07-29T15:27:43;28.00;99.90
13245;DHT22;6689;53.400;12.486;2022-07-29T15:30:13;28.00;99.90
13245;DHT22;6689;53.400;12.486;2022-07-29T15:32:47;28.00;99.90
13245;DHT22;6689;53.400;12.486;2022-07-29T15:35:14;28.00;99.90
13245;DHT22;6689;53.400;12.486;2022-07-29T15:37:44;27.90;99.90
13245;DHT22;6689;53.400;12.486;2022-07-29T15:40:15;28.00;99.90
13245;DHT22;6689;53.400;12.486;2022-07-29T15:42:48;27.90;99.90
13245;DHT22;6689;53.400;12.486;2022-07-29T15:45:18;27.90;99.90
13245;DHT22;6689;53.400;12.486;2022-07-29T15:47:48;27.90;99.90
13245;DHT22;6689;53.400;12.486;2022-07-29T15:50:18;27.90;99.90
13245;DHT22;6689;53.400;12.486;2022-07-29T15:52:48;27.90;99.90
13245;DHT22;6689;53.400;12.486;2022-07-29T15:55:15;27.80;99.90
13245;DHT22;6689;53.400;12.486;2022-07-29T15:57:53;27.80;99.90
13245;DHT22;6689;53.400;12.486;2022-07-29T16:00:23;27.70;99.90
13245;DHT22;6689;53.400;12.486;2022-07-29T16:02:52;27.70;99.90
13245;DHT22;6689;53.400;12.486;2022-07-29T16:05:19;27.80;99.90
13245;DHT22;6689;53.400;12.486;2022-07-29T16:07:54;27.80;99.90
13245;DHT22;6689;53.400;12.486;2022-07-29T16:10:34;27.80;99.90
13245;DHT22;6689;53.400;12.486;2022-07-29T16:13:04;27.80;99.90